Time;durP1;ratioP1;P1;durP2;ratioP2;P2;SDS_P1;SDS_P2;PMS_P1;PMS_P2;Temp;Humidity;BMP_temperature;BMP_pressure;BME280_temperature;BME280_humidity;BME280_pressure;Samples;Min_cycle;Max_cycle;Signal;HPM_P1;HPM_P2
2023/06/29 00:01:11;;;;;;;0.60;0.60;;;18.80;99.90;;;;;;5074420;28;20041;-73
2023/06/29 00:03:38;;;;;;;0.52;0.52;;;18.80;99.90;;;;;;5075317;28;20493;-73
2023/06/29 00:06:03;;;;;;;1.10;1.10;;;18.50;99.90;;;;;;5067967;28;20140;-73
2023/06/29 00:08:36;;;;;;;0.75;0.75;;;18.60;99.90;;;;;;5062428;28;20132;-73
2023/06/29 00:11:07;;;;;;;0.40;0.40;;;18.60;99.90;;;;;;5065531;28;20414;-73
2023/06/29 00:13:33;;;;;;;0.38;0.38;;;18.80;99.90;;;;;;5059857;28;20043;-73
2023/06/29 00:15:59;;;;;;;0.68;0.68;;;18.80;99.90;;;;;;5046538;28;20052;-73
2023/06/29 00:18:28;;;;;;;0.43;0.43;;;18.50;99.90;;;;;;5074486;28;20064;-73
2023/06/29 00:20:54;;;;;;;0.50;0.50;;;18.50;99.90;;;;;;5067482;28;20504;-73
2023/06/29 00:23:20;;;;;;;0.47;0.47;;;18.50;99.90;;;;;;5065710;28;20157;-73
2023/06/29 00:25:47;;;;;;;0.38;0.38;;;18.70;99.90;;;;;;5068282;28;20070;-73
2023/06/29 00:28:13;;;;;;;0.40;0.40;;;18.50;99.90;;;;;;5065377;28;20056;-73
2023/06/29 00:30:39;;;;;;;0.32;0.32;;;18.60;99.90;;;;;;5067622;28;20123;-73
2023/06/29 00:33:04;;;;;;;0.40;0.40;;;18.70;99.90;;;;;;5071317;28;20178;-73
2023/06/29 00:35:31;;;;;;;0.55;0.55;;;18.50;99.90;;;;;;5080631;28;20058;-73
2023/06/29 00:37:57;;;;;;;0.50;0.50;;;18.50;99.90;;;;;;5073644;28;20236;-73
2023/06/29 00:40:23;;;;;;;1.88;1.42;;;18.50;99.90;;;;;;5063472;28;20432;-73
2023/06/29 00:42:49;;;;;;;0.70;0.52;;;18.60;99.90;;;;;;5064084;28;20037;-73
2023/06/29 00:45:16;;;;;;;0.60;0.60;;;18.70;99.90;;;;;;5071120;28;20047;-73
2023/06/29 00:47:42;;;;;;;0.50;0.50;;;18.70;99.90;;;;;;5054548;28;20091;-73
2023/06/29 00:50:09;;;;;;;0.30;0.30;;;18.60;99.90;;;;;;5058279;28;20468;-73
2023/06/29 00:52:34;;;;;;;0.35;0.35;;;18.50;99.90;;;;;;5073095;28;20417;-73
2023/06/29 00:55:01;;;;;;;0.93;0.93;;;18.40;99.90;;;;;;5069522;28;20040;-73
2023/06/29 00:57:29;;;;;;;1.17;1.08;;;18.40;99.90;;;;;;5064465;28;20032;-73
2023/06/29 00:59:59;;;;;;;3.67;0.52;;;18.40;99.90;;;;;;5073911;28;20075;-73
2023/06/29 01:02:26;;;;;;;0.50;0.50;;;18.60;99.90;;;;;;5070643;28;20064;-73
2023/06/29 01:04:51;;;;;;;0.60;0.60;;;18.40;99.90;;;;;;5071319;28;20381;-73
2023/06/29 01:07:32;;;;;;;0.50;0.50;;;18.60;99.90;;;;;;5073612;28;20489;-73
2023/06/29 01:09:59;;;;;;;0.45;0.45;;;18.40;99.90;;;;;;5070687;28;20519;-73
2023/06/29 01:12:26;;;;;;;0.30;0.30;;;18.40;99.90;;;;;;5070493;28;20041;-73
2023/06/29 01:14:54;;;;;;;0.63;0.63;;;18.60;99.90;;;;;;5065347;28;20056;-73
2023/06/29 01:17:23;;;;;;;0.90;0.90;;;18.40;99.90;;;;;;5070710;28;20051;-73
2023/06/29 01:19:51;;;;;;;0.60;0.60;;;18.60;99.90;;;;;;5072850;28;20063;-73
2023/06/29 01:22:58;;;;;;;0.30;0.30;;;18.30;99.90;;;;;;5073850;28;20588;-73
2023/06/29 01:25:26;;;;;;;0.57;0.57;;;18.50;99.90;;;;;;5060676;28;20051;-73
2023/06/29 01:27:52;;;;;;;0.60;0.60;;;18.60;99.90;;;;;;5057039;28;20045;-73
2023/06/29 01:30:18;;;;;;;0.52;0.45;;;18.30;99.90;;;;;;5071292;28;20123;-73
2023/06/29 01:32:44;;;;;;;0.40;0.40;;;18.30;99.90;;;;;;5048186;28;20127;-73
2023/06/29 01:35:11;;;;;;;0.60;0.60;;;18.30;99.90;;;;;;5047600;28;20048;-73
2023/06/29 01:37:58;;;;;;;0.50;0.45;;;18.30;99.90;;;;;;5075132;28;20835;-73
2023/06/29 01:40:27;;;;;;;0.70;0.70;;;18.50;99.90;;;;;;5064502;28;20059;-73
2023/06/29 01:42:55;;;;;;;0.70;0.70;;;18.30;99.90;;;;;;5068319;28;20079;-73
2023/06/29 01:45:22;;;;;;;0.60;0.60;;;18.30;99.90;;;;;;5045474;28;20040;-73
2023/06/29 01:47:48;;;;;;;0.82;0.82;;;18.30;99.90;;;;;;5054085;28;20041;-73
2023/06/29 01:50:16;;;;;;;0.40;0.40;;;18.30;99.90;;;;;;5075497;28;20043;-73
2023/06/29 01:52:43;;;;;;;0.65;0.65;;;18.30;99.90;;;;;;5066429;28;20052;-73
2023/06/29 01:55:10;;;;;;;0.38;0.38;;;18.40;99.90;;;;;;5069885;28;20044;-73
2023/06/29 01:57:37;;;;;;;1.40;1.17;;;18.20;99.90;;;;;;5063760;28;20119;-73
2023/06/29 02:00:03;;;;;;;0.45;0.45;;;18.40;99.90;;;;;;5063000;28;20082;-73
2023/06/29 02:02:30;;;;;;;0.70;0.70;;;18.30;99.90;;;;;;5062789;28;20051;-73
2023/06/29 02:04:56;;;;;;;0.70;0.70;;;18.20;99.90;;;;;;5055200;28;20057;-73
2023/06/29 02:07:21;;;;;;;1.23;0.80;;;18.30;99.90;;;;;;5068955;28;20052;-73
2023/06/29 02:09:47;;;;;;;0.63;0.63;;;18.30;99.90;;;;;;5072980;28;20048;-73
2023/06/29 02:12:13;;;;;;;0.75;0.57;;;18.20;99.90;;;;;;5071510;28;20040;-73
2023/06/29 02:14:39;;;;;;;0.47;0.47;;;18.20;99.90;;;;;;5072605;28;20501;-73
2023/06/29 02:17:04;;;;;;;0.35;0.35;;;18.50;99.90;;;;;;5074075;28;20121;-73
2023/06/29 02:19:30;;;;;;;2.17;1.50;;;18.40;99.90;;;;;;5071161;28;20071;-73
2023/06/29 02:21:56;;;;;;;0.80;0.80;;;18.40;99.90;;;;;;5065764;28;20036;-73
2023/06/29 02:24:23;;;;;;;0.73;0.73;;;18.30;99.90;;;;;;5060747;28;20052;-73
2023/06/29 02:26:48;;;;;;;0.60;0.60;;;18.40;99.90;;;;;;5066968;28;20110;-73
2023/06/29 02:29:14;;;;;;;1.00;1.00;;;18.40;99.90;;;;;;5062271;28;20502;-73
2023/06/29 02:31:40;;;;;;;1.75;0.57;;;18.20;99.90;;;;;;5074601;28;20048;-72
2023/06/29 02:34:06;;;;;;;0.47;0.47;;;18.40;99.90;;;;;;5053832;28;20135;-73
2023/06/29 02:36:31;;;;;;;0.63;0.63;;;18.20;99.90;;;;;;5066956;28;20044;-72
2023/06/29 02:38:57;;;;;;;0.40;0.40;;;18.40;99.90;;;;;;5058199;28;20044;-73
2023/06/29 02:41:22;;;;;;;1.50;1.35;;;18.20;99.90;;;;;;5066903;28;20497;-73
2023/06/29 02:43:48;;;;;;;0.75;0.68;;;18.20;99.90;;;;;;5070902;28;20045;-73
2023/06/29 02:46:14;;;;;;;0.65;0.65;;;18.20;99.90;;;;;;5072927;28;20322;-73
2023/06/29 02:48:39;;;;;;;0.40;0.40;;;18.20;99.90;;;;;;5068401;28;20040;-72
2023/06/29 02:51:05;;;;;;;0.55;0.55;;;18.40;99.90;;;;;;5069897;28;20514;-72
2023/06/29 02:53:31;;;;;;;1.10;1.05;;;18.20;99.90;;;;;;5067905;28;20493;-72
2023/06/29 02:55:56;;;;;;;0.40;0.40;;;18.20;99.90;;;;;;5062600;28;20068;-72
2023/06/29 02:58:22;;;;;;;1.45;1.35;;;18.30;99.90;;;;;;5068578;28;20074;-72
2023/06/29 03:00:48;;;;;;;6.07;0.80;;;18.20;99.90;;;;;;5060537;28;20485;-73
2023/06/29 03:03:13;;;;;;;1.27;0.88;;;18.10;99.90;;;;;;5056497;28;20740;-73
2023/06/29 03:05:39;;;;;;;1.85;1.75;;;18.20;99.90;;;;;;5062513;28;20451;-73
2023/06/29 03:08:05;;;;;;;0.82;0.80;;;18.40;99.90;;;;;;5066311;28;20049;-73
2023/06/29 03:10:30;;;;;;;1.92;1.20;;;18.20;99.90;;;;;;5067143;28;20048;-73
2023/06/29 03:12:56;;;;;;;0.65;0.65;;;18.10;99.90;;;;;;5063761;28;20398;-72
2023/06/29 03:15:21;;;;;;;1.27;1.27;;;18.10;99.90;;;;;;5047865;28;20402;-73
2023/06/29 03:17:47;;;;;;;1.05;1.05;;;18.10;99.90;;;;;;5077573;28;20080;-73
2023/06/29 03:20:15;;;;;;;0.63;0.63;;;18.20;99.90;;;;;;5055274;28;20716;-73
2023/06/29 03:22:41;;;;;;;3.47;0.80;;;18.20;99.90;;;;;;5063683;28;20037;-73
2023/06/29 03:25:09;;;;;;;2.47;1.20;;;18.40;99.90;;;;;;5065021;28;20048;-72
2023/06/29 03:27:35;;;;;;;0.50;0.50;;;18.20;99.90;;;;;;5062601;28;20048;-73
2023/06/29 03:30:00;;;;;;;0.80;0.80;;;18.20;99.90;;;;;;5059196;28;20040;-73
2023/06/29 03:32:26;;;;;;;0.95;0.95;;;18.20;99.90;;;;;;5063704;28;20045;-72
2023/06/29 03:34:51;;;;;;;0.60;0.60;;;18.40;99.90;;;;;;5073121;28;20123;-73
2023/06/29 03:37:18;;;;;;;1.25;1.15;;;18.40;99.90;;;;;;5055632;28;20056;-73
2023/06/29 03:39:44;;;;;;;1.17;0.73;;;18.20;99.90;;;;;;5060965;28;20103;-72
2023/06/29 03:42:09;;;;;;;1.95;1.33;;;18.20;99.90;;;;;;5058447;28;20902;-73
2023/06/29 03:44:36;;;;;;;1.50;1.48;;;18.30;99.90;;;;;;5067676;28;20120;-72
2023/06/29 03:47:02;;;;;;;0.60;0.60;;;18.40;99.90;;;;;;5067615;28;20406;-72
2023/06/29 03:49:27;;;;;;;1.05;1.02;;;18.30;99.90;;;;;;5060751;28;20037;-73
2023/06/29 03:51:53;;;;;;;0.50;0.50;;;18.50;99.90;;;;;;5057124;28;20045;-73
2023/06/29 03:54:20;;;;;;;1.60;1.52;;;18.20;99.90;;;;;;5070919;28;20052;-73
2023/06/29 03:56:45;;;;;;;0.80;0.80;;;18.30;99.90;;;;;;5058732;28;20425;-72
2023/06/29 03:59:11;;;;;;;0.55;0.55;;;18.30;99.90;;;;;;5067645;28;20041;-72
2023/06/29 04:01:36;;;;;;;1.48;1.40;;;18.20;99.90;;;;;;5071005;28;20482;-73
2023/06/29 04:04:02;;;;;;;0.50;0.50;;;18.50;99.90;;;;;;5046544;28;20109;-72
2023/06/29 04:06:28;;;;;;;1.40;1.30;;;18.30;99.90;;;;;;5066241;28;20048;-73
2023/06/29 04:08:53;;;;;;;1.35;1.30;;;18.40;99.90;;;;;;5071118;28;20067;-73
2023/06/29 04:11:19;;;;;;;0.80;0.80;;;18.30;99.90;;;;;;5065757;28;20040;-73
2023/06/29 04:13:44;;;;;;;1.88;1.77;;;18.60;99.90;;;;;;5067752;28;20080;-73
2023/06/29 04:16:10;;;;;;;0.90;0.90;;;18.30;99.90;;;;;;5059974;28;20068;-73
2023/06/29 04:18:36;;;;;;;0.75;0.75;;;18.60;99.90;;;;;;5065721;28;20072;-73
2023/06/29 04:21:01;;;;;;;0.85;0.85;;;18.50;99.90;;;;;;5069727;28;20037;-73
2023/06/29 04:23:27;;;;;;;1.13;1.13;;;18.60;99.90;;;;;;5071050;28;20478;-73
2023/06/29 04:25:52;;;;;;;1.73;1.63;;;18.60;99.90;;;;;;5066777;28;20395;-73
2023/06/29 04:28:18;;;;;;;0.70;0.70;;;18.50;99.90;;;;;;5069397;28;20071;-73
2023/06/29 04:30:44;;;;;;;2.25;0.80;;;18.50;99.90;;;;;;5069714;28;20045;-73
2023/06/29 04:33:10;;;;;;;0.90;0.90;;;18.60;99.90;;;;;;5071352;28;20036;-73
2023/06/29 04:35:43;;;;;;;0.50;0.50;;;18.50;99.90;;;;;;5063903;28;20114;-73
2023/06/29 04:38:10;;;;;;;1.42;1.35;;;18.50;99.90;;;;;;5071264;28;20105;-73
2023/06/29 04:40:37;;;;;;;2.45;2.25;;;18.50;99.90;;;;;;5073865;28;20116;-73
2023/06/29 04:43:03;;;;;;;0.90;0.90;;;18.70;99.90;;;;;;5070616;28;20048;-73
2023/06/29 04:45:31;;;;;;;3.03;1.38;;;18.60;99.90;;;;;;5069303;28;20387;-73
2023/06/29 04:47:57;;;;;;;;;;;18.60;99.90;;;;;;5072400;28;20047;-73
2023/06/29 04:50:30;;;;;;;0.85;0.85;;;19.00;99.90;;;;;;5075915;28;19920;-73
2023/06/29 04:52:58;;;;;;;1.17;1.08;;;18.70;99.90;;;;;;5072358;28;20052;-73
2023/06/29 04:55:25;;;;;;;1.25;1.25;;;18.90;99.90;;;;;;5072537;28;20119;-73
2023/06/29 04:57:51;;;;;;;1.20;1.05;;;18.70;99.90;;;;;;5073673;28;20048;-73
2023/06/29 05:00:18;;;;;;;5.82;2.20;;;18.80;99.90;;;;;;5072230;28;20047;-73
2023/06/29 05:02:44;;;;;;;0.80;0.80;;;19.10;99.90;;;;;;5069226;28;20087;-73
2023/06/29 05:05:10;;;;;;;1.63;1.52;;;18.90;99.90;;;;;;5066413;28;20290;-73
2023/06/29 05:07:37;;;;;;;2.20;2.10;;;18.90;99.90;;;;;;5063249;28;20673;-73
2023/06/29 05:10:03;;;;;;;1.15;1.05;;;18.90;99.90;;;;;;5062737;28;20123;-73
2023/06/29 05:12:29;;;;;;;1.40;1.30;;;19.10;99.90;;;;;;5068515;28;20039;-73
2023/06/29 05:14:55;;;;;;;2.05;1.67;;;19.30;99.90;;;;;;5073240;28;20063;-73
2023/06/29 05:17:20;;;;;;;2.25;0.93;;;19.40;99.90;;;;;;5070806;28;20823;-72
2023/06/29 05:19:46;;;;;;;1.35;1.35;;;19.40;99.90;;;;;;5063643;28;20522;-73
2023/06/29 05:22:12;;;;;;;1.98;1.42;;;19.50;99.90;;;;;;5056645;28;20041;-73
2023/06/29 05:24:37;;;;;;;0.98;0.93;;;19.40;99.90;;;;;;5069376;28;20047;-73
2023/06/29 05:27:04;;;;;;;1.25;0.85;;;19.40;99.90;;;;;;5052130;28;20036;-73
2023/06/29 05:29:30;;;;;;;1.48;0.93;;;19.40;99.90;;;;;;5077256;28;20489;-73
2023/06/29 05:31:55;;;;;;;1.02;0.95;;;19.70;99.90;;;;;;5052593;28;20036;-73
2023/06/29 05:34:21;;;;;;;2.22;1.20;;;19.80;99.90;;;;;;5064017;28;20428;-73
2023/06/29 05:36:47;;;;;;;1.52;1.40;;;19.60;99.90;;;;;;5069803;28;20409;-72
2023/06/29 05:39:13;;;;;;;0.70;0.70;;;19.60;99.90;;;;;;5067705;28;20050;-73
2023/06/29 05:41:38;;;;;;;1.75;1.48;;;19.70;99.90;;;;;;5069873;28;20532;-73
2023/06/29 05:44:06;;;;;;;1.30;1.13;;;19.90;99.90;;;;;;5067369;28;20052;-72
2023/06/29 05:46:33;;;;;;;1.40;1.30;;;19.70;99.90;;;;;;5065821;28;20130;-73
2023/06/29 05:49:00;;;;;;;1.65;1.55;;;20.00;99.90;;;;;;5066600;28;20086;-73
2023/06/29 05:51:26;;;;;;;1.23;1.23;;;20.00;99.90;;;;;;5064961;28;20401;-73
2023/06/29 05:53:52;;;;;;;0.80;0.80;;;19.80;99.90;;;;;;5068255;28;20041;-73
2023/06/29 05:56:18;;;;;;;3.63;1.58;;;19.80;99.90;;;;;;5068989;28;20044;-73
2023/06/29 05:58:44;;;;;;;1.02;0.93;;;20.10;99.90;;;;;;5052476;28;20036;-73
2023/06/29 06:01:10;;;;;;;0.80;0.80;;;19.90;99.90;;;;;;5060083;28;20054;-73
2023/06/29 06:03:35;;;;;;;2.17;2.08;;;20.00;99.90;;;;;;5067683;28;20405;-73
2023/06/29 06:06:02;;;;;;;1.73;1.63;;;20.10;99.90;;;;;;5054604;28;20049;-73
2023/06/29 06:08:28;;;;;;;1.00;1.00;;;20.10;99.90;;;;;;5056706;28;20057;-73
2023/06/29 06:10:53;;;;;;;1.98;1.88;;;20.20;99.90;;;;;;5068530;28;20467;-73
2023/06/29 06:13:19;;;;;;;1.65;1.60;;;20.40;99.90;;;;;;5072952;28;20079;-73
2023/06/29 06:15:45;;;;;;;5.60;1.23;;;20.20;99.90;;;;;;5074321;28;20093;-72
2023/06/29 06:18:11;;;;;;;1.70;1.60;;;20.40;99.90;;;;;;5066350;28;20054;-73
2023/06/29 06:20:37;;;;;;;3.60;1.55;;;20.30;99.90;;;;;;5068131;28;20102;-73
2023/06/29 06:23:02;;;;;;;2.25;0.85;;;20.50;99.90;;;;;;5066327;28;20055;-73
2023/06/29 06:25:28;;;;;;;2.05;1.88;;;20.50;99.90;;;;;;5065544;28;20120;-73
2023/06/29 06:27:53;;;;;;;1.75;1.65;;;20.70;99.90;;;;;;5072627;28;20477;-73
2023/06/29 06:30:20;;;;;;;1.15;1.13;;;20.80;99.90;;;;;;5063326;28;20037;-73
2023/06/29 06:32:46;;;;;;;1.10;1.10;;;20.90;99.90;;;;;;5059603;28;20132;-72
2023/06/29 06:35:12;;;;;;;2.22;2.00;;;20.90;99.90;;;;;;5070267;28;20844;-73
2023/06/29 06:37:38;;;;;;;1.67;1.58;;;21.10;99.90;;;;;;5056225;28;20051;-72
2023/06/29 06:40:08;;;;;;;0.77;0.77;;;21.30;99.90;;;;;;5069763;28;20032;-73
2023/06/29 06:42:37;;;;;;;4.07;2.50;;;21.10;99.90;;;;;;5056751;28;20037;-73
2023/06/29 06:45:05;;;;;;;0.52;0.52;;;21.10;99.90;;;;;;5068927;28;20048;-73
2023/06/29 06:47:31;;;;;;;1.45;1.30;;;21.10;99.90;;;;;;5059863;28;20489;-73
2023/06/29 06:49:58;;;;;;;1.50;1.40;;;21.10;99.90;;;;;;5068005;28;20102;-73
2023/06/29 06:52:23;;;;;;;0.77;0.75;;;21.30;99.90;;;;;;5056677;28;20081;-72
2023/06/29 06:54:50;;;;;;;1.52;1.48;;;21.40;99.90;;;;;;5064695;28;20060;-72
2023/06/29 06:57:16;;;;;;;0.70;0.70;;;21.10;99.90;;;;;;5067315;28;20133;-72
2023/06/29 06:59:42;;;;;;;1.02;0.93;;;21.10;99.90;;;;;;5053985;28;20071;-72
2023/06/29 07:02:07;;;;;;;1.25;1.20;;;21.20;99.90;;;;;;5066955;28;20040;-72
2023/06/29 07:04:33;;;;;;;1.73;1.55;;;21.20;99.90;;;;;;5054623;28;20076;-72
2023/06/29 07:06:59;;;;;;;0.55;0.55;;;21.20;99.90;;;;;;5067320;28;20702;-72
2023/06/29 07:09:25;;;;;;;1.20;1.10;;;21.20;99.90;;;;;;5070954;28;20055;-72
2023/06/29 07:11:50;;;;;;;2.95;2.67;;;20.90;99.90;;;;;;5061865;28;20128;-71
2023/06/29 07:14:17;;;;;;;1.88;1.77;;;20.90;99.90;;;;;;5065984;28;20083;-72
2023/06/29 07:16:43;;;;;;;1.60;1.48;;;21.10;99.90;;;;;;5070241;28;20052;-72
2023/06/29 07:19:13;;;;;;;0.95;0.95;;;21.10;99.90;;;;;;5068943;28;20044;-73
2023/06/29 07:21:39;;;;;;;0.90;0.90;;;20.90;99.90;;;;;;5069538;28;20045;-74
2023/06/29 07:24:05;;;;;;;5.15;1.90;;;20.90;99.90;;;;;;5062286;28;20047;-74
2023/06/29 07:26:31;;;;;;;1.35;1.30;;;20.80;99.90;;;;;;5059350;28;20171;-74
2023/06/29 07:28:56;;;;;;;0.73;0.70;;;20.80;99.90;;;;;;5064821;28;20044;-74
2023/06/29 07:31:26;;;;;;;2.53;1.58;;;20.80;99.90;;;;;;5065378;28;20048;-74
2023/06/29 07:33:53;;;;;;;0.98;0.98;;;20.80;99.90;;;;;;5043180;28;20045;-74
2023/06/29 07:36:23;;;;;;;0.43;0.43;;;20.70;99.90;;;;;;5072726;28;20057;-73
2023/06/29 07:38:49;;;;;;;0.60;0.60;;;21.00;99.90;;;;;;5063624;28;20304;-74
2023/06/29 07:41:16;;;;;;;3.30;1.70;;;21.20;99.90;;;;;;5062178;28;20055;-74
2023/06/29 07:43:47;;;;;;;0.40;0.40;;;20.80;99.90;;;;;;5067519;28;20576;-74
2023/06/29 07:46:12;;;;;;;0.68;0.68;;;20.80;99.90;;;;;;5059311;28;20046;-74
2023/06/29 07:48:38;;;;;;;0.75;0.75;;;21.10;99.90;;;;;;5068439;28;20037;-74
2023/06/29 07:51:04;;;;;;;1.50;1.38;;;21.10;99.90;;;;;;5057195;28;20039;-74
2023/06/29 07:53:31;;;;;;;1.15;0.77;;;20.90;99.90;;;;;;5068548;28;20043;-74
2023/06/29 07:56:00;;;;;;;1.85;1.73;;;21.00;99.90;;;;;;5072582;28;20048;-74
2023/06/29 07:58:29;;;;;;;3.40;1.70;;;21.20;99.90;;;;;;5050181;28;20055;-74
2023/06/29 08:00:55;;;;;;;2.47;2.28;;;21.10;99.90;;;;;;5057814;28;20104;-72
2023/06/29 08:03:21;;;;;;;0.63;0.63;;;21.20;99.90;;;;;;5069103;28;20853;-74
2023/06/29 08:05:47;;;;;;;2.92;1.15;;;21.30;99.90;;;;;;5067214;28;20505;-74
2023/06/29 08:08:13;;;;;;;0.50;0.50;;;21.70;99.90;;;;;;5073309;28;20072;-74
2023/06/29 08:10:38;;;;;;;0.95;0.95;;;21.80;99.90;;;;;;5065117;28;20523;-74
2023/06/29 08:13:04;;;;;;;2.45;2.10;;;21.60;99.90;;;;;;5070312;28;20047;-74
2023/06/29 08:15:30;;;;;;;6.60;3.45;;;21.70;99.90;;;;;;5070148;28;20078;-74
2023/06/29 08:17:56;;;;;;;2.47;2.33;;;21.80;99.90;;;;;;5077716;28;20532;-74
2023/06/29 08:20:22;;;;;;;0.93;0.93;;;21.80;99.90;;;;;;5078572;28;20504;-74
2023/06/29 08:22:48;;;;;;;2.40;1.90;;;21.90;99.90;;;;;;5063414;28;20118;-74
2023/06/29 08:25:14;;;;;;;0.95;0.95;;;22.00;99.90;;;;;;5076760;28;20048;-74
2023/06/29 08:27:41;;;;;;;3.13;2.03;;;22.20;99.90;;;;;;5073644;28;20409;-75
2023/06/29 08:30:08;;;;;;;1.92;1.70;;;22.10;99.90;;;;;;5071527;28;20051;-74
2023/06/29 08:32:34;;;;;;;2.20;1.63;;;22.20;99.90;;;;;;5056275;28;20041;-74
2023/06/29 08:34:59;;;;;;;2.35;2.17;;;22.00;99.90;;;;;;5071674;28;20399;-74
2023/06/29 08:37:28;;;;;;;2.30;2.15;;;22.20;99.90;;;;;;5064069;28;20071;-74
2023/06/29 08:39:54;;;;;;;2.13;1.35;;;22.00;99.90;;;;;;5075493;28;20132;-74
2023/06/29 08:42:21;;;;;;;1.92;1.75;;;22.10;99.90;;;;;;5076886;28;20401;-74
2023/06/29 08:44:47;;;;;;;1.15;0.90;;;22.00;99.90;;;;;;5068810;28;20121;-74
2023/06/29 08:47:14;;;;;;;2.85;2.60;;;21.90;99.90;;;;;;5074489;28;20052;-74
2023/06/29 08:49:41;;;;;;;1.90;1.77;;;22.00;99.90;;;;;;5071624;28;20052;-74
2023/06/29 08:52:11;;;;;;;1.30;1.20;;;21.90;99.90;;;;;;5060889;28;20111;-74
2023/06/29 08:54:38;;;;;;;3.40;2.80;;;21.90;99.90;;;;;;5063156;28;20048;-74
2023/06/29 08:57:04;;;;;;;3.10;2.83;;;22.20;99.90;;;;;;5061018;28;20195;-74
2023/06/29 08:59:31;;;;;;;5.88;1.67;;;22.20;99.90;;;;;;5063697;28;20720;-74
2023/06/29 09:01:58;;;;;;;1.75;1.65;;;22.30;99.90;;;;;;5058644;28;20045;-74
2023/06/29 09:04:24;;;;;;;2.90;2.17;;;22.30;99.90;;;;;;5062301;28;20052;-74
2023/06/29 09:06:53;;;;;;;1.55;1.45;;;22.30;99.90;;;;;;5062995;28;20067;-74
2023/06/29 09:09:20;;;;;;;2.50;2.30;;;22.40;99.90;;;;;;5059423;28;20080;-74
2023/06/29 09:11:46;;;;;;;1.47;1.37;;;22.70;99.90;;;;;;5060428;28;20135;-74
2023/06/29 09:14:11;;;;;;;1.77;1.58;;;22.70;99.90;;;;;;5056566;28;20036;-74
2023/06/29 09:16:50;;;;;;;3.33;2.03;;;23.00;99.90;;;;;;5070889;28;20051;-74
2023/06/29 09:19:17;;;;;;;2.60;2.47;;;22.80;99.90;;;;;;5067547;28;20090;-74
2023/06/29 09:21:45;;;;;;;1.92;1.83;;;23.00;99.90;;;;;;5055568;28;20816;-74
2023/06/29 09:24:13;;;;;;;1.85;1.75;;;23.00;99.90;;;;;;5067081;28;20521;-74
2023/06/29 09:26:38;;;;;;;0.80;0.80;;;23.30;99.90;;;;;;5064348;28;20576;-74
2023/06/29 09:29:04;;;;;;;1.90;1.85;;;23.10;99.90;;;;;;5064211;28;20154;-74
2023/06/29 09:31:33;;;;;;;1.27;1.27;;;23.10;99.90;;;;;;5068141;28;20056;-74
2023/06/29 09:34:19;;;;;;;2.55;2.35;;;23.10;99.90;;;;;;5072283;28;20079;-74
2023/06/29 09:36:46;;;;;;;2.90;2.70;;;23.10;99.90;;;;;;5067796;28;20155;-74
2023/06/29 09:39:12;;;;;;;4.05;2.35;;;23.10;99.90;;;;;;5060029;28;20102;-73
2023/06/29 09:42:05;;;;;;;2.08;1.48;;;23.20;99.90;;;;;;5058615;28;20040;-74
2023/06/29 09:44:31;;;;;;;1.10;1.10;;;23.20;99.90;;;;;;5062490;28;20053;-74
2023/06/29 09:47:04;;;;;;;1.58;1.00;;;23.20;99.90;;;;;;5057567;28;20045;-74
2023/06/29 09:49:31;;;;;;;4.72;2.72;;;23.30;99.90;;;;;;5062486;28;20052;-74
2023/06/29 09:52:04;;;;;;;2.67;2.47;;;23.20;99.90;;;;;;5057787;28;20136;-74
2023/06/29 09:54:36;;;;;;;2.15;1.95;;;23.30;99.90;;;;;;5056707;28;20108;-74
2023/06/29 09:57:03;;;;;;;5.30;3.38;;;23.40;99.90;;;;;;5062489;28;20052;-74
2023/06/29 09:59:34;;;;;;;3.80;2.80;;;23.40;99.90;;;;;;5063668;28;20052;-74
2023/06/29 10:02:00;;;;;;;2.28;2.08;;;23.70;99.90;;;;;;5059852;28;20036;-74
2023/06/29 10:04:25;;;;;;;1.52;1.42;;;23.50;99.90;;;;;;5059704;28;20043;-74
2023/06/29 10:07:21;;;;;;;2.00;1.88;;;23.50;99.90;;;;;;5060234;28;20044;-74
2023/06/29 10:09:49;;;;;;;3.10;2.25;;;23.80;99.90;;;;;;5066248;28;20088;-72
2023/06/29 10:12:16;;;;;;;;;;;23.60;99.90;;;;;;5057363;28;20059;-72
2023/06/29 10:14:44;;;;;;;1.27;1.13;;;23.60;99.90;;;;;;5059377;28;19950;-72
2023/06/29 10:17:23;;;;;;;4.38;2.13;;;23.70;99.90;;;;;;5058099;28;20731;-72
2023/06/29 10:19:51;;;;;;;3.50;3.15;;;23.50;99.90;;;;;;5060960;28;20044;-72
2023/06/29 10:22:17;;;;;;;2.13;1.98;;;23.50;99.90;;;;;;5066004;28;20584;-72
2023/06/29 10:24:56;;;;;;;6.88;5.20;;;23.50;99.90;;;;;;5061160;28;20051;-72
2023/06/29 10:27:25;;;;;;;4.45;3.40;;;23.10;99.90;;;;;;5072073;28;20053;-72
2023/06/29 10:29:51;;;;;;;4.40;2.58;;;23.00;99.90;;;;;;5063862;28;20067;-72
2023/06/29 10:32:34;;;;;;;3.00;2.80;;;22.90;99.90;;;;;;5060575;28;20044;-72
2023/06/29 10:35:13;;;;;;;2.47;2.17;;;22.90;99.90;;;;;;5068679;28;20048;-72
2023/06/29 10:37:50;;;;;;;1.92;1.83;;;22.60;99.90;;;;;;5058869;28;20148;-72
2023/06/29 10:40:24;;;;;;;4.45;2.28;;;22.80;99.90;;;;;;5063716;28;20074;-72
2023/06/29 10:42:52;;;;;;;6.40;3.45;;;22.70;99.90;;;;;;5073008;28;20055;-72
2023/06/29 10:45:17;;;;;;;1.25;1.25;;;22.50;99.90;;;;;;5065875;28;20044;-72
2023/06/29 10:47:45;;;;;;;2.20;2.10;;;22.50;99.90;;;;;;5065922;28;20110;-72
2023/06/29 10:50:10;;;;;;;1.17;1.17;;;22.50;99.90;;;;;;5054426;28;20123;-72
2023/06/29 10:52:37;;;;;;;2.72;1.75;;;22.50;99.90;;;;;;5058414;28;20573;-72
2023/06/29 10:55:39;;;;;;;4.57;3.05;;;22.30;99.90;;;;;;5062364;28;20094;-72
2023/06/29 10:58:24;;;;;;;1.65;1.55;;;22.50;99.90;;;;;;5057163;28;20499;-72
2023/06/29 11:00:52;;;;;;;0.90;0.73;;;22.50;99.90;;;;;;5055571;28;20073;-72
2023/06/29 11:03:19;;;;;;;;;;;22.20;99.90;;;;;;5064609;28;20055;-72
2023/06/29 11:05:50;;;;;;;0.93;0.93;;;22.30;99.90;;;;;;5058009;28;19928;-72
2023/06/29 11:08:16;;;;;;;2.40;1.95;;;22.30;99.90;;;;;;5058009;28;20060;-72
2023/06/29 11:10:42;;;;;;;1.58;1.48;;;22.30;99.90;;;;;;5061134;28;20052;-72
2023/06/29 11:13:09;;;;;;;1.48;1.38;;;22.10;99.90;;;;;;5060602;28;20048;-76
2023/06/29 11:15:35;;;;;;;3.42;2.35;;;22.10;99.90;;;;;;5057865;28;20045;-74
2023/06/29 11:18:09;;;;;;;2.30;1.95;;;22.30;99.90;;;;;;5058468;28;20047;-74
2023/06/29 11:20:38;;;;;;;2.67;2.47;;;22.20;99.90;;;;;;5064429;28;20119;-74
2023/06/29 11:23:04;;;;;;;4.22;2.78;;;22.20;99.90;;;;;;5064439;28;20052;-73
2023/06/29 11:25:29;;;;;;;2.35;1.17;;;22.30;99.90;;;;;;5062957;28;20044;-74
2023/06/29 11:27:56;;;;;;;1.73;1.65;;;22.10;99.90;;;;;;5068356;28;20550;-74
2023/06/29 11:30:22;;;;;;;3.22;2.30;;;22.20;99.90;;;;;;5062715;28;20048;-74
2023/06/29 11:32:49;;;;;;;1.15;1.05;;;22.20;99.90;;;;;;5064255;28;20492;-74
2023/06/29 11:35:15;;;;;;;3.40;2.78;;;22.30;99.90;;;;;;5064323;28;20059;-74
2023/06/29 11:37:41;;;;;;;0.95;0.95;;;22.40;99.90;;;;;;5059850;28;20037;-74
2023/06/29 11:40:21;;;;;;;2.95;1.88;;;22.40;99.90;;;;;;5058284;28;20048;-74
2023/06/29 11:42:53;;;;;;;2.50;2.22;;;22.60;99.90;;;;;;5066295;28;20052;-73
2023/06/29 11:45:20;;;;;;;4.82;2.45;;;22.60;99.90;;;;;;5054406;28;20040;-73
2023/06/29 11:47:51;;;;;;;4.63;3.83;;;22.60;99.90;;;;;;5052631;28;20049;-73
2023/06/29 11:50:17;;;;;;;1.80;1.70;;;22.70;99.90;;;;;;5064363;28;20043;-73
2023/06/29 11:52:44;;;;;;;2.15;1.67;;;22.90;99.90;;;;;;5062548;28;20050;-73
2023/06/29 11:55:15;;;;;;;3.40;3.17;;;23.00;99.90;;;;;;5064253;28;20041;-73
2023/06/29 11:57:42;;;;;;;2.13;2.03;;;23.00;99.90;;;;;;5061241;28;20094;-73
2023/06/29 12:00:13;;;;;;;1.73;1.73;;;23.10;99.90;;;;;;5067773;28;20048;-73
2023/06/29 12:02:43;;;;;;;4.32;2.75;;;23.50;99.90;;;;;;5059198;28;20040;-74
2023/06/29 12:05:09;;;;;;;4.13;3.30;;;23.30;99.90;;;;;;5061856;28;20476;-73
2023/06/29 12:07:46;;;;;;;2.40;2.20;;;23.40;99.90;;;;;;5062603;28;20510;-73
2023/06/29 12:10:19;;;;;;;3.47;3.13;;;23.70;99.90;;;;;;5062030;28;20056;-73
2023/06/29 12:12:56;;;;;;;3.78;3.47;;;23.50;99.90;;;;;;5062165;28;20307;-74
2023/06/29 12:15:30;;;;;;;4.07;3.53;;;23.50;99.90;;;;;;5061615;28;20082;-71
2023/06/29 12:18:13;;;;;;;2.00;1.88;;;23.70;99.90;;;;;;5067693;28;20052;-71
2023/06/29 12:20:45;;;;;;;3.28;2.97;;;23.90;99.90;;;;;;5054821;28;20077;-71
2023/06/29 12:23:13;;;;;;;3.05;2.70;;;24.20;99.90;;;;;;5051641;28;20566;-71
2023/06/29 12:25:46;;;;;;;8.95;3.05;;;24.70;99.90;;;;;;5062241;28;20049;-71
2023/06/29 12:28:13;;;;;;;1.50;1.45;;;25.00;99.90;;;;;;5057269;28;20041;-71
2023/06/29 12:30:39;;;;;;;2.38;2.08;;;24.90;99.90;;;;;;5063941;28;20062;-71
2023/06/29 12:33:06;;;;;;;3.75;2.20;;;25.00;99.90;;;;;;5062313;28;20048;-71
2023/06/29 12:35:31;;;;;;;3.22;2.88;;;25.20;99.90;;;;;;5064022;28;20516;-71
2023/06/29 12:37:58;;;;;;;0.60;0.60;;;25.20;99.90;;;;;;5052628;28;20057;-71
2023/06/29 12:40:24;;;;;;;1.08;1.08;;;25.20;99.90;;;;;;5058363;28;20052;-71
2023/06/29 12:42:51;;;;;;;2.25;2.03;;;25.20;99.90;;;;;;5062370;28;20040;-71
2023/06/29 12:45:17;;;;;;;;;;;25.10;99.90;;;;;;5065967;28;20047;-71
2023/06/29 12:47:43;;;;;;;1.05;0.95;;;25.00;99.90;;;;;;5063716;28;19931;-71
2023/06/29 12:50:10;;;;;;;1.85;1.75;;;25.00;99.90;;;;;;5069497;28;20036;-71